sensor_id;sensor_type;location;lat;lon;timestamp;P1;durP1;ratioP1;P2;durP2;ratioP2
60030;SDS011;45901;47.600;9.890;2023-07-22T00:01:49;3.60;;;2.53;;
60030;SDS011;45901;47.600;9.890;2023-07-22T00:04:16;4.23;;;2.43;;
60030;SDS011;45901;47.600;9.890;2023-07-22T00:06:44;4.10;;;2.50;;
60030;SDS011;45901;47.600;9.890;2023-07-22T00:09:11;4.10;;;2.87;;
60030;SDS011;45901;47.600;9.890;2023-07-22T00:11:38;5.53;;;2.23;;
60030;SDS011;45901;47.600;9.890;2023-07-22T00:14:05;3.70;;;2.30;;
60030;SDS011;45901;47.600;9.890;2023-07-22T00:16:32;6.30;;;2.50;;
60030;SDS011;45901;47.600;9.890;2023-07-22T00:18:59;5.00;;;2.60;;
60030;SDS011;45901;47.600;9.890;2023-07-22T00:21:27;4.50;;;2.70;;
60030;SDS011;45901;47.600;9.890;2023-07-22T00:23:55;4.07;;;2.40;;
60030;SDS011;45901;47.600;9.890;2023-07-22T00:26:22;4.80;;;2.50;;
60030;SDS011;45901;47.600;9.890;2023-07-22T00:28:49;4.93;;;2.30;;
60030;SDS011;45901;47.600;9.890;2023-07-22T00:31:16;4.37;;;2.33;;
60030;SDS011;45901;47.600;9.890;2023-07-22T00:33:43;4.70;;;2.53;;
60030;SDS011;45901;47.600;9.890;2023-07-22T00:36:10;4.40;;;1.97;;
60030;SDS011;45901;47.600;9.890;2023-07-22T00:38:38;4.97;;;2.40;;
60030;SDS011;45901;47.600;9.890;2023-07-22T00:41:07;4.23;;;2.37;;
60030;SDS011;45901;47.600;9.890;2023-07-22T00:43:34;3.90;;;2.60;;
60030;SDS011;45901;47.600;9.890;2023-07-22T00:46:01;5.30;;;2.70;;
60030;SDS011;45901;47.600;9.890;2023-07-22T00:48:28;4.70;;;2.80;;
60030;SDS011;45901;47.600;9.890;2023-07-22T00:50:56;7.00;;;3.70;;
60030;SDS011;45901;47.600;9.890;2023-07-22T00:53:23;4.87;;;2.90;;
60030;SDS011;45901;47.600;9.890;2023-07-22T00:55:50;4.57;;;3.00;;
60030;SDS011;45901;47.600;9.890;2023-07-22T00:58:19;6.07;;;2.77;;
60030;SDS011;45901;47.600;9.890;2023-07-22T01:00:47;4.50;;;3.00;;
60030;SDS011;45901;47.600;9.890;2023-07-22T01:03:14;4.43;;;2.63;;
60030;SDS011;45901;47.600;9.890;2023-07-22T01:05:41;7.43;;;2.53;;
60030;SDS011;45901;47.600;9.890;2023-07-22T01:08:08;5.23;;;2.60;;
60030;SDS011;45901;47.600;9.890;2023-07-22T01:10:39;4.13;;;2.40;;
60030;SDS011;45901;47.600;9.890;2023-07-22T06:57:36;2.20;;;1.53;;
60030;SDS011;45901;47.600;9.890;2023-07-22T07:00:07;3.10;;;1.70;;
60030;SDS011;45901;47.600;9.890;2023-07-22T07:02:35;2.63;;;1.70;;
60030;SDS011;45901;47.600;9.890;2023-07-22T07:05:02;2.57;;;1.63;;
60030;SDS011;45901;47.600;9.890;2023-07-22T07:07:30;2.13;;;1.50;;
60030;SDS011;45901;47.600;9.890;2023-07-22T07:09:57;3.03;;;1.47;;
60030;SDS011;45901;47.600;9.890;2023-07-22T07:12:24;4.00;;;2.00;;
60030;SDS011;45901;47.600;9.890;2023-07-22T07:14:53;5.70;;;1.83;;
60030;SDS011;45901;47.600;9.890;2023-07-22T07:17:20;4.27;;;1.80;;
60030;SDS011;45901;47.600;9.890;2023-07-22T07:19:47;3.53;;;1.97;;
60030;SDS011;45901;47.600;9.890;2023-07-22T07:22:14;3.90;;;2.03;;
60030;SDS011;45901;47.600;9.890;2023-07-22T07:24:41;6.10;;;1.80;;
60030;SDS011;45901;47.600;9.890;2023-07-22T07:27:08;2.70;;;1.80;;
60030;SDS011;45901;47.600;9.890;2023-07-22T07:29:35;2.00;;;1.60;;
60030;SDS011;45901;47.600;9.890;2023-07-22T07:32:04;3.00;;;1.90;;
60030;SDS011;45901;47.600;9.890;2023-07-22T07:34:31;2.90;;;1.70;;
60030;SDS011;45901;47.600;9.890;2023-07-22T07:36:58;3.37;;;1.77;;
60030;SDS011;45901;47.600;9.890;2023-07-22T07:39:25;3.80;;;1.83;;
60030;SDS011;45901;47.600;9.890;2023-07-22T07:41:53;3.10;;;1.60;;
60030;SDS011;45901;47.600;9.890;2023-07-22T07:44:20;3.70;;;1.73;;
60030;SDS011;45901;47.600;9.890;2023-07-22T07:46:47;4.27;;;1.80;;
60030;SDS011;45901;47.600;9.890;2023-07-22T07:49:15;3.10;;;1.90;;
60030;SDS011;45901;47.600;9.890;2023-07-22T07:51:43;3.67;;;2.40;;
60030;SDS011;45901;47.600;9.890;2023-07-22T07:54:11;3.37;;;1.67;;
60030;SDS011;45901;47.600;9.890;2023-07-22T07:56:38;3.57;;;1.77;;
60030;SDS011;45901;47.600;9.890;2023-07-22T07:59:05;3.67;;;2.13;;
60030;SDS011;45901;47.600;9.890;2023-07-22T08:01:34;5.00;;;1.80;;
60030;SDS011;45901;47.600;9.890;2023-07-22T08:04:06;4.40;;;2.07;;
60030;SDS011;45901;47.600;9.890;2023-07-22T08:06:35;6.10;;;2.40;;
60030;SDS011;45901;47.600;9.890;2023-07-22T08:09:03;2.57;;;1.67;;
60030;SDS011;45901;47.600;9.890;2023-07-22T08:11:30;2.23;;;1.83;;
60030;SDS011;45901;47.600;9.890;2023-07-22T08:13:58;4.00;;;1.70;;
60030;SDS011;45901;47.600;9.890;2023-07-22T08:16:25;2.77;;;2.07;;
60030;SDS011;45901;47.600;9.890;2023-07-22T08:18:54;5.03;;;2.50;;
60030;SDS011;45901;47.600;9.890;2023-07-22T08:21:21;2.93;;;2.00;;
60030;SDS011;45901;47.600;9.890;2023-07-22T08:23:49;2.47;;;1.77;;
60030;SDS011;45901;47.600;9.890;2023-07-22T08:26:16;3.80;;;2.00;;
60030;SDS011;45901;47.600;9.890;2023-07-22T08:28:46;3.90;;;2.23;;
60030;SDS011;45901;47.600;9.890;2023-07-22T08:31:13;5.40;;;2.27;;
60030;SDS011;45901;47.600;9.890;2023-07-22T08:33:40;4.30;;;2.07;;
60030;SDS011;45901;47.600;9.890;2023-07-22T08:36:07;4.00;;;2.20;;
60030;SDS011;45901;47.600;9.890;2023-07-22T08:38:35;4.10;;;2.30;;
60030;SDS011;45901;47.600;9.890;2023-07-22T08:41:03;2.83;;;1.70;;
60030;SDS011;45901;47.600;9.890;2023-07-22T08:43:30;3.00;;;1.77;;
60030;SDS011;45901;47.600;9.890;2023-07-22T08:46:01;2.53;;;2.00;;
60030;SDS011;45901;47.600;9.890;2023-07-22T08:48:31;5.43;;;2.00;;
60030;SDS011;45901;47.600;9.890;2023-07-22T08:51:03;2.70;;;1.63;;
60030;SDS011;45901;47.600;9.890;2023-07-22T08:53:36;3.73;;;1.80;;
60030;SDS011;45901;47.600;9.890;2023-07-22T08:56:05;4.70;;;1.90;;
60030;SDS011;45901;47.600;9.890;2023-07-22T08:58:33;4.23;;;2.20;;
60030;SDS011;45901;47.600;9.890;2023-07-22T09:01:02;4.00;;;1.73;;
60030;SDS011;45901;47.600;9.890;2023-07-22T09:03:29;4.00;;;1.57;;
60030;SDS011;45901;47.600;9.890;2023-07-22T09:05:56;5.43;;;1.73;;
60030;SDS011;45901;47.600;9.890;2023-07-22T09:08:24;4.00;;;1.80;;
60030;SDS011;45901;47.600;9.890;2023-07-22T09:10:51;3.27;;;1.50;;
60030;SDS011;45901;47.600;9.890;2023-07-22T09:13:20;3.37;;;1.50;;
60030;SDS011;45901;47.600;9.890;2023-07-22T09:15:48;3.73;;;1.67;;
60030;SDS011;45901;47.600;9.890;2023-07-22T09:18:16;3.23;;;1.77;;
60030;SDS011;45901;47.600;9.890;2023-07-22T09:20:43;5.10;;;1.80;;
60030;SDS011;45901;47.600;9.890;2023-07-22T09:23:11;2.67;;;1.50;;
60030;SDS011;45901;47.600;9.890;2023-07-22T09:25:39;3.07;;;2.00;;
60030;SDS011;45901;47.600;9.890;2023-07-22T09:28:06;4.97;;;2.27;;
60030;SDS011;45901;47.600;9.890;2023-07-22T09:30:35;5.67;;;1.80;;
60030;SDS011;45901;47.600;9.890;2023-07-22T09:33:04;7.33;;;2.00;;
60030;SDS011;45901;47.600;9.890;2023-07-22T09:35:43;4.03;;;1.73;;
60030;SDS011;45901;47.600;9.890;2023-07-22T09:38:12;5.13;;;2.10;;
60030;SDS011;45901;47.600;9.890;2023-07-22T09:40:40;4.27;;;1.90;;
60030;SDS011;45901;47.600;9.890;2023-07-22T09:43:09;2.90;;;1.90;;
60030;SDS011;45901;47.600;9.890;2023-07-22T09:45:38;2.90;;;1.83;;
60030;SDS011;45901;47.600;9.890;2023-07-22T09:48:05;3.30;;;1.80;;
60030;SDS011;45901;47.600;9.890;2023-07-22T09:50:35;4.13;;;1.50;;
60030;SDS011;45901;47.600;9.890;2023-07-22T09:53:02;3.43;;;1.50;;
60030;SDS011;45901;47.600;9.890;2023-07-22T09:55:30;2.13;;;1.30;;
60030;SDS011;45901;47.600;9.890;2023-07-22T09:57:59;3.90;;;1.60;;
60030;SDS011;45901;47.600;9.890;2023-07-22T10:00:28;3.83;;;1.90;;
60030;SDS011;45901;47.600;9.890;2023-07-22T10:02:58;5.03;;;1.97;;
60030;SDS011;45901;47.600;9.890;2023-07-22T10:05:29;2.77;;;1.70;;
60030;SDS011;45901;47.600;9.890;2023-07-22T10:07:59;4.73;;;1.83;;
60030;SDS011;45901;47.600;9.890;2023-07-22T10:10:27;3.60;;;1.33;;
60030;SDS011;45901;47.600;9.890;2023-07-22T10:12:59;3.43;;;1.70;;
60030;SDS011;45901;47.600;9.890;2023-07-22T10:15:28;3.07;;;1.37;;
60030;SDS011;45901;47.600;9.890;2023-07-22T10:18:00;3.23;;;1.70;;
60030;SDS011;45901;47.600;9.890;2023-07-22T10:20:28;5.57;;;1.47;;
60030;SDS011;45901;47.600;9.890;2023-07-22T10:22:59;3.53;;;1.37;;
60030;SDS011;45901;47.600;9.890;2023-07-22T10:25:27;2.20;;;1.20;;
60030;SDS011;45901;47.600;9.890;2023-07-22T10:27:55;2.97;;;1.53;;
60030;SDS011;45901;47.600;9.890;2023-07-22T10:30:22;3.37;;;1.27;;
60030;SDS011;45901;47.600;9.890;2023-07-22T10:32:50;2.27;;;1.27;;
60030;SDS011;45901;47.600;9.890;2023-07-22T10:35:24;1.70;;;1.10;;
60030;SDS011;45901;47.600;9.890;2023-07-22T10:38:09;1.90;;;1.10;;
60030;SDS011;45901;47.600;9.890;2023-07-22T10:40:45;2.07;;;1.10;;
60030;SDS011;45901;47.600;9.890;2023-07-22T10:43:14;2.00;;;1.30;;
60030;SDS011;45901;47.600;9.890;2023-07-22T10:45:48;1.97;;;1.10;;
60030;SDS011;45901;47.600;9.890;2023-07-22T10:48:18;3.23;;;1.20;;
60030;SDS011;45901;47.600;9.890;2023-07-22T10:50:48;1.87;;;1.10;;
60030;SDS011;45901;47.600;9.890;2023-07-22T10:53:20;1.90;;;1.10;;
60030;SDS011;45901;47.600;9.890;2023-07-22T10:56:13;1.80;;;1.07;;
60030;SDS011;45901;47.600;9.890;2023-07-22T10:58:55;1.63;;;1.10;;
60030;SDS011;45901;47.600;9.890;2023-07-22T11:01:32;4.57;;;1.50;;
60030;SDS011;45901;47.600;9.890;2023-07-22T11:07:02;4.57;;;1.00;;
60030;SDS011;45901;47.600;9.890;2023-07-22T11:09:35;4.40;;;1.30;;
60030;SDS011;45901;47.600;9.890;2023-07-22T11:12:07;3.27;;;1.10;;
60030;SDS011;45901;47.600;9.890;2023-07-22T11:14:38;2.97;;;1.40;;
60030;SDS011;45901;47.600;9.890;2023-07-22T11:17:06;3.20;;;1.53;;
60030;SDS011;45901;47.600;9.890;2023-07-22T11:19:34;2.77;;;1.57;;
60030;SDS011;45901;47.600;9.890;2023-07-22T11:22:03;5.17;;;1.50;;
60030;SDS011;45901;47.600;9.890;2023-07-22T11:24:32;2.90;;;1.43;;
60030;SDS011;45901;47.600;9.890;2023-07-22T11:27:02;2.83;;;1.10;;
60030;SDS011;45901;47.600;9.890;2023-07-22T11:29:31;3.47;;;1.50;;
60030;SDS011;45901;47.600;9.890;2023-07-22T11:31:58;2.20;;;1.37;;
60030;SDS011;45901;47.600;9.890;2023-07-22T11:34:25;2.17;;;1.40;;
60030;SDS011;45901;47.600;9.890;2023-07-22T11:36:52;2.40;;;1.50;;
60030;SDS011;45901;47.600;9.890;2023-07-22T11:39:23;1.93;;;1.20;;
60030;SDS011;45901;47.600;9.890;2023-07-22T11:41:52;2.57;;;1.47;;
60030;SDS011;45901;47.600;9.890;2023-07-22T11:44:20;2.20;;;1.30;;
60030;SDS011;45901;47.600;9.890;2023-07-22T11:46:51;1.67;;;1.10;;
60030;SDS011;45901;47.600;9.890;2023-07-22T11:49:22;3.23;;;1.20;;
60030;SDS011;45901;47.600;9.890;2023-07-22T11:51:51;2.23;;;1.70;;
60030;SDS011;45901;47.600;9.890;2023-07-22T11:54:24;3.53;;;1.53;;
60030;SDS011;45901;47.600;9.890;2023-07-22T11:56:53;2.93;;;1.50;;
60030;SDS011;45901;47.600;9.890;2023-07-22T11:59:36;2.20;;;1.40;;
60030;SDS011;45901;47.600;9.890;2023-07-22T12:02:05;3.63;;;1.70;;
60030;SDS011;45901;47.600;9.890;2023-07-22T12:04:32;3.63;;;1.80;;
60030;SDS011;45901;47.600;9.890;2023-07-22T12:07:00;5.30;;;2.00;;
60030;SDS011;45901;47.600;9.890;2023-07-22T12:09:31;3.30;;;1.47;;
60030;SDS011;45901;47.600;9.890;2023-07-22T12:11:58;5.80;;;1.80;;
60030;SDS011;45901;47.600;9.890;2023-07-22T12:14:32;4.35;;;1.70;;
60030;SDS011;45901;47.600;9.890;2023-07-22T12:17:00;2.47;;;1.77;;
60030;SDS011;45901;47.600;9.890;2023-07-22T12:19:28;3.00;;;1.73;;
60030;SDS011;45901;47.600;9.890;2023-07-22T12:21:56;2.83;;;1.80;;
60030;SDS011;45901;47.600;9.890;2023-07-22T12:24:23;3.38;;;1.80;;
60030;SDS011;45901;47.600;9.890;2023-07-22T12:26:51;3.03;;;1.73;;
60030;SDS011;45901;47.600;9.890;2023-07-22T12:29:18;2.73;;;1.70;;
60030;SDS011;45901;47.600;9.890;2023-07-22T12:31:47;2.77;;;1.80;;
60030;SDS011;45901;47.600;9.890;2023-07-22T12:34:14;2.87;;;1.87;;
60030;SDS011;45901;47.600;9.890;2023-07-22T12:36:41;2.00;;;1.43;;
60030;SDS011;45901;47.600;9.890;2023-07-22T12:39:08;4.27;;;1.80;;
60030;SDS011;45901;47.600;9.890;2023-07-22T12:41:34;2.33;;;1.30;;
60030;SDS011;45901;47.600;9.890;2023-07-22T12:44:03;2.30;;;1.50;;
60030;SDS011;45901;47.600;9.890;2023-07-22T12:46:30;5.40;;;2.17;;
60030;SDS011;45901;47.600;9.890;2023-07-22T12:48:57;3.80;;;1.70;;
60030;SDS011;45901;47.600;9.890;2023-07-22T12:51:24;3.70;;;2.07;;
60030;SDS011;45901;47.600;9.890;2023-07-22T12:53:51;2.38;;;1.67;;
60030;SDS011;45901;47.600;9.890;2023-07-22T12:56:18;4.53;;;1.80;;
60030;SDS011;45901;47.600;9.890;2023-07-22T12:58:45;4.22;;;2.30;;
60030;SDS011;45901;47.600;9.890;2023-07-22T13:01:13;3.38;;;2.10;;
60030;SDS011;45901;47.600;9.890;2023-07-22T13:03:40;3.70;;;2.10;;
60030;SDS011;45901;47.600;9.890;2023-07-22T13:06:07;2.75;;;1.83;;
60030;SDS011;45901;47.600;9.890;2023-07-22T13:08:34;4.15;;;1.92;;
60030;SDS011;45901;47.600;9.890;2023-07-22T13:11:01;4.38;;;1.80;;
60030;SDS011;45901;47.600;9.890;2023-07-22T13:13:28;3.17;;;2.03;;
60030;SDS011;45901;47.600;9.890;2023-07-22T13:15:55;3.55;;;2.35;;
60030;SDS011;45901;47.600;9.890;2023-07-22T13:18:23;3.17;;;1.90;;
60030;SDS011;45901;47.600;9.890;2023-07-22T13:20:50;4.38;;;1.67;;
60030;SDS011;45901;47.600;9.890;2023-07-22T13:23:17;3.83;;;2.00;;
60030;SDS011;45901;47.600;9.890;2023-07-22T13:25:43;6.63;;;2.13;;
60030;SDS011;45901;47.600;9.890;2023-07-22T13:28:10;3.20;;;1.63;;
60030;SDS011;45901;47.600;9.890;2023-07-22T13:30:37;5.05;;;2.25;;
60030;SDS011;45901;47.600;9.890;2023-07-22T13:33:04;3.42;;;1.92;;
60030;SDS011;45901;47.600;9.890;2023-07-22T13:35:32;2.63;;;1.65;;
60030;SDS011;45901;47.600;9.890;2023-07-22T13:37:59;4.45;;;2.45;;
60030;SDS011;45901;47.600;9.890;2023-07-22T13:40:26;4.68;;;2.10;;
60030;SDS011;45901;47.600;9.890;2023-07-22T13:42:53;3.75;;;2.15;;
60030;SDS011;45901;47.600;9.890;2023-07-22T13:45:20;5.10;;;2.40;;
60030;SDS011;45901;47.600;9.890;2023-07-22T13:47:47;5.32;;;2.20;;
60030;SDS011;45901;47.600;9.890;2023-07-22T13:50:14;4.13;;;2.20;;
60030;SDS011;45901;47.600;9.890;2023-07-22T13:52:43;2.35;;;1.75;;
60030;SDS011;45901;47.600;9.890;2023-07-22T13:55:10;5.82;;;2.25;;
60030;SDS011;45901;47.600;9.890;2023-07-22T13:57:36;3.90;;;2.42;;
60030;SDS011;45901;47.600;9.890;2023-07-22T14:00:04;4.40;;;2.35;;
60030;SDS011;45901;47.600;9.890;2023-07-22T14:02:33;5.47;;;2.50;;
60030;SDS011;45901;47.600;9.890;2023-07-22T14:05:00;2.88;;;2.13;;
60030;SDS011;45901;47.600;9.890;2023-07-22T14:07:28;5.22;;;2.00;;
60030;SDS011;45901;47.600;9.890;2023-07-22T14:09:56;3.80;;;2.13;;
60030;SDS011;45901;47.600;9.890;2023-07-22T14:12:23;3.42;;;2.25;;
60030;SDS011;45901;47.600;9.890;2023-07-22T14:14:50;4.45;;;2.22;;
60030;SDS011;45901;47.600;9.890;2023-07-22T14:17:17;3.65;;;2.05;;
60030;SDS011;45901;47.600;9.890;2023-07-22T14:19:44;3.10;;;2.20;;
60030;SDS011;45901;47.600;9.890;2023-07-22T14:22:11;6.78;;;1.90;;
60030;SDS011;45901;47.600;9.890;2023-07-22T14:24:38;3.53;;;2.13;;
60030;SDS011;45901;47.600;9.890;2023-07-22T14:27:06;6.03;;;2.53;;
60030;SDS011;45901;47.600;9.890;2023-07-22T14:29:33;3.58;;;2.40;;
60030;SDS011;45901;47.600;9.890;2023-07-22T14:32:00;3.33;;;1.90;;
60030;SDS011;45901;47.600;9.890;2023-07-22T14:34:28;3.97;;;2.53;;
60030;SDS011;45901;47.600;9.890;2023-07-22T14:36:54;3.63;;;2.00;;
60030;SDS011;45901;47.600;9.890;2023-07-22T14:39:21;3.80;;;2.30;;
60030;SDS011;45901;47.600;9.890;2023-07-22T14:41:48;4.57;;;2.28;;
60030;SDS011;45901;47.600;9.890;2023-07-22T14:44:18;3.92;;;2.38;;
60030;SDS011;45901;47.600;9.890;2023-07-22T14:46:45;5.90;;;2.05;;
60030;SDS011;45901;47.600;9.890;2023-07-22T14:49:12;4.10;;;2.17;;
60030;SDS011;45901;47.600;9.890;2023-07-22T14:51:39;3.53;;;2.42;;
60030;SDS011;45901;47.600;9.890;2023-07-22T14:54:06;5.00;;;2.60;;
60030;SDS011;45901;47.600;9.890;2023-07-22T14:56:34;3.10;;;2.10;;
60030;SDS011;45901;47.600;9.890;2023-07-22T14:59:01;4.93;;;2.10;;
60030;SDS011;45901;47.600;9.890;2023-07-22T15:01:37;3.45;;;1.90;;
60030;SDS011;45901;47.600;9.890;2023-07-22T15:04:04;3.00;;;1.92;;
60030;SDS011;45901;47.600;9.890;2023-07-22T15:06:32;2.40;;;1.80;;
60030;SDS011;45901;47.600;9.890;2023-07-22T15:09:00;3.80;;;1.90;;
60030;SDS011;45901;47.600;9.890;2023-07-22T15:11:31;4.25;;;1.88;;
60030;SDS011;45901;47.600;9.890;2023-07-22T15:13:58;6.38;;;2.20;;
60030;SDS011;45901;47.600;9.890;2023-07-22T15:16:25;5.93;;;2.50;;
60030;SDS011;45901;47.600;9.890;2023-07-22T15:18:53;3.05;;;1.90;;
60030;SDS011;45901;47.600;9.890;2023-07-22T15:21:21;3.95;;;2.50;;
60030;SDS011;45901;47.600;9.890;2023-07-22T15:23:48;3.70;;;1.70;;
60030;SDS011;45901;47.600;9.890;2023-07-22T15:26:15;3.00;;;1.95;;
60030;SDS011;45901;47.600;9.890;2023-07-22T15:28:42;3.45;;;1.83;;
60030;SDS011;45901;47.600;9.890;2023-07-22T15:31:09;3.40;;;2.03;;
60030;SDS011;45901;47.600;9.890;2023-07-22T15:33:36;4.32;;;1.90;;
60030;SDS011;45901;47.600;9.890;2023-07-22T15:36:05;4.18;;;1.75;;
60030;SDS011;45901;47.600;9.890;2023-07-22T15:38:31;4.82;;;2.10;;
60030;SDS011;45901;47.600;9.890;2023-07-22T15:40:58;2.97;;;2.10;;
60030;SDS011;45901;47.600;9.890;2023-07-22T15:43:27;6.30;;;2.15;;
60030;SDS011;45901;47.600;9.890;2023-07-22T15:45:54;4.03;;;2.20;;
60030;SDS011;45901;47.600;9.890;2023-07-22T15:48:21;3.80;;;2.10;;
60030;SDS011;45901;47.600;9.890;2023-07-22T15:50:48;5.57;;;2.50;;
60030;SDS011;45901;47.600;9.890;2023-07-22T15:53:16;4.68;;;2.03;;
60030;SDS011;45901;47.600;9.890;2023-07-22T15:55:43;2.80;;;1.90;;
60030;SDS011;45901;47.600;9.890;2023-07-22T15:58:10;3.30;;;2.33;;
60030;SDS011;45901;47.600;9.890;2023-07-22T16:00:37;4.25;;;2.63;;
60030;SDS011;45901;47.600;9.890;2023-07-22T16:03:04;3.55;;;2.15;;
60030;SDS011;45901;47.600;9.890;2023-07-22T16:05:31;3.38;;;1.90;;
60030;SDS011;45901;47.600;9.890;2023-07-22T16:07:58;4.00;;;2.03;;
60030;SDS011;45901;47.600;9.890;2023-07-22T16:10:26;3.03;;;1.90;;
60030;SDS011;45901;47.600;9.890;2023-07-22T16:12:53;3.95;;;2.10;;
60030;SDS011;45901;47.600;9.890;2023-07-22T16:15:20;4.55;;;1.88;;
60030;SDS011;45901;47.600;9.890;2023-07-22T16:17:47;5.63;;;2.15;;
60030;SDS011;45901;47.600;9.890;2023-07-22T16:20:14;4.75;;;2.15;;
60030;SDS011;45901;47.600;9.890;2023-07-22T16:22:43;13.63;;;2.45;;
60030;SDS011;45901;47.600;9.890;2023-07-22T16:25:10;3.53;;;1.80;;
60030;SDS011;45901;47.600;9.890;2023-07-22T16:27:38;2.92;;;2.08;;
60030;SDS011;45901;47.600;9.890;2023-07-22T16:30:06;2.90;;;1.73;;
60030;SDS011;45901;47.600;9.890;2023-07-22T16:32:34;5.13;;;1.88;;
60030;SDS011;45901;47.600;9.890;2023-07-22T16:35:01;2.25;;;1.58;;
60030;SDS011;45901;47.600;9.890;2023-07-22T16:37:28;10.43;;;2.08;;
60030;SDS011;45901;47.600;9.890;2023-07-22T16:39:55;3.97;;;2.15;;
60030;SDS011;45901;47.600;9.890;2023-07-22T16:42:23;3.30;;;2.00;;
60030;SDS011;45901;47.600;9.890;2023-07-22T16:44:51;2.75;;;1.70;;
60030;SDS011;45901;47.600;9.890;2023-07-22T16:47:18;3.38;;;1.67;;
60030;SDS011;45901;47.600;9.890;2023-07-22T16:49:45;2.50;;;1.77;;
60030;SDS011;45901;47.600;9.890;2023-07-22T16:52:12;2.97;;;1.98;;
60030;SDS011;45901;47.600;9.890;2023-07-22T16:54:39;4.03;;;1.73;;
60030;SDS011;45901;47.600;9.890;2023-07-22T16:57:07;3.15;;;1.95;;
60030;SDS011;45901;47.600;9.890;2023-07-22T16:59:34;2.95;;;1.70;;
60030;SDS011;45901;47.600;9.890;2023-07-22T17:02:02;3.67;;;2.15;;
60030;SDS011;45901;47.600;9.890;2023-07-22T17:04:30;5.18;;;2.25;;
60030;SDS011;45901;47.600;9.890;2023-07-22T17:06:57;5.30;;;2.22;;
60030;SDS011;45901;47.600;9.890;2023-07-22T17:09:24;4.68;;;1.90;;
60030;SDS011;45901;47.600;9.890;2023-07-22T17:11:51;4.18;;;1.85;;
60030;SDS011;45901;47.600;9.890;2023-07-22T17:14:18;4.05;;;1.90;;
60030;SDS011;45901;47.600;9.890;2023-07-22T17:16:45;4.10;;;2.25;;
60030;SDS011;45901;47.600;9.890;2023-07-22T17:19:13;5.20;;;2.40;;
60030;SDS011;45901;47.600;9.890;2023-07-22T17:21:40;5.57;;;2.45;;
60030;SDS011;45901;47.600;9.890;2023-07-22T17:24:07;4.75;;;2.22;;
60030;SDS011;45901;47.600;9.890;2023-07-22T17:26:34;4.82;;;2.15;;
60030;SDS011;45901;47.600;9.890;2023-07-22T17:29:01;5.03;;;2.00;;
60030;SDS011;45901;47.600;9.890;2023-07-22T17:31:28;4.50;;;2.20;;
60030;SDS011;45901;47.600;9.890;2023-07-22T17:33:55;8.82;;;2.30;;
60030;SDS011;45901;47.600;9.890;2023-07-22T17:36:23;3.50;;;2.10;;
60030;SDS011;45901;47.600;9.890;2023-07-22T17:38:50;4.43;;;1.85;;
60030;SDS011;45901;47.600;9.890;2023-07-22T17:41:17;3.58;;;2.22;;
60030;SDS011;45901;47.600;9.890;2023-07-22T17:43:44;3.85;;;2.22;;
60030;SDS011;45901;47.600;9.890;2023-07-22T17:46:11;5.60;;;1.95;;
60030;SDS011;45901;47.600;9.890;2023-07-22T17:48:37;4.60;;;3.28;;
60030;SDS011;45901;47.600;9.890;2023-07-22T17:51:04;2.45;;;1.83;;
60030;SDS011;45901;47.600;9.890;2023-07-22T17:53:33;3.05;;;1.83;;
60030;SDS011;45901;47.600;9.890;2023-07-22T17:56:00;4.47;;;1.83;;
60030;SDS011;45901;47.600;9.890;2023-07-22T17:58:27;3.75;;;2.40;;
60030;SDS011;45901;47.600;9.890;2023-07-22T18:00:53;2.33;;;1.92;;
60030;SDS011;45901;47.600;9.890;2023-07-22T18:03:20;3.67;;;1.60;;
60030;SDS011;45901;47.600;9.890;2023-07-22T18:05:47;5.82;;;2.30;;
60030;SDS011;45901;47.600;9.890;2023-07-22T18:08:14;2.35;;;1.80;;
60030;SDS011;45901;47.600;9.890;2023-07-22T18:10:43;3.83;;;2.38;;
60030;SDS011;45901;47.600;9.890;2023-07-22T18:13:09;6.22;;;2.15;;
60030;SDS011;45901;47.600;9.890;2023-07-22T18:15:36;4.20;;;1.90;;
60030;SDS011;45901;47.600;9.890;2023-07-22T18:18:03;4.87;;;2.30;;
60030;SDS011;45901;47.600;9.890;2023-07-22T18:20:32;2.60;;;1.70;;
60030;SDS011;45901;47.600;9.890;2023-07-22T18:23:00;3.00;;;1.90;;
60030;SDS011;45901;47.600;9.890;2023-07-22T18:25:27;3.60;;;1.97;;
60030;SDS011;45901;47.600;9.890;2023-07-22T18:27:55;2.73;;;1.80;;
60030;SDS011;45901;47.600;9.890;2023-07-22T18:30:22;3.70;;;2.20;;
60030;SDS011;45901;47.600;9.890;2023-07-22T18:32:49;5.67;;;1.97;;
60030;SDS011;45901;47.600;9.890;2023-07-22T18:35:16;3.50;;;1.93;;
60030;SDS011;45901;47.600;9.890;2023-07-22T18:37:43;3.17;;;2.00;;
60030;SDS011;45901;47.600;9.890;2023-07-22T18:40:10;3.63;;;1.87;;
60030;SDS011;45901;47.600;9.890;2023-07-22T18:42:38;4.30;;;1.70;;
60030;SDS011;45901;47.600;9.890;2023-07-22T18:45:07;4.70;;;2.17;;
60030;SDS011;45901;47.600;9.890;2023-07-22T18:47:35;2.77;;;1.93;;
60030;SDS011;45901;47.600;9.890;2023-07-22T18:50:03;2.93;;;1.87;;
60030;SDS011;45901;47.600;9.890;2023-07-22T18:52:31;3.67;;;2.00;;
60030;SDS011;45901;47.600;9.890;2023-07-22T18:54:58;4.73;;;2.20;;
60030;SDS011;45901;47.600;9.890;2023-07-22T18:57:25;3.67;;;2.30;;
60030;SDS011;45901;47.600;9.890;2023-07-22T18:59:52;4.33;;;2.43;;
60030;SDS011;45901;47.600;9.890;2023-07-22T19:02:20;4.20;;;2.40;;
60030;SDS011;45901;47.600;9.890;2023-07-22T19:04:47;4.63;;;2.60;;
60030;SDS011;45901;47.600;9.890;2023-07-22T19:07:14;6.67;;;2.50;;
60030;SDS011;45901;47.600;9.890;2023-07-22T19:09:41;6.00;;;2.30;;
60030;SDS011;45901;47.600;9.890;2023-07-22T19:12:08;7.97;;;2.80;;
60030;SDS011;45901;47.600;9.890;2023-07-22T19:14:35;6.80;;;2.70;;
60030;SDS011;45901;47.600;9.890;2023-07-22T19:17:02;4.40;;;2.83;;
60030;SDS011;45901;47.600;9.890;2023-07-22T19:19:31;8.83;;;3.00;;
60030;SDS011;45901;47.600;9.890;2023-07-22T19:21:58;6.07;;;2.93;;
60030;SDS011;45901;47.600;9.890;2023-07-22T19:24:25;5.50;;;3.00;;
60030;SDS011;45901;47.600;9.890;2023-07-22T19:26:52;9.17;;;3.30;;
60030;SDS011;45901;47.600;9.890;2023-07-22T19:29:19;3.63;;;2.40;;
60030;SDS011;45901;47.600;9.890;2023-07-22T19:31:45;5.63;;;2.53;;
60030;SDS011;45901;47.600;9.890;2023-07-22T19:34:12;7.00;;;3.17;;
60030;SDS011;45901;47.600;9.890;2023-07-22T19:36:41;4.23;;;2.90;;
60030;SDS011;45901;47.600;9.890;2023-07-22T19:39:08;4.47;;;2.50;;
60030;SDS011;45901;47.600;9.890;2023-07-22T19:41:35;5.23;;;2.27;;
60030;SDS011;45901;47.600;9.890;2023-07-22T19:44:02;6.50;;;3.30;;
60030;SDS011;45901;47.600;9.890;2023-07-22T19:46:29;4.80;;;2.40;;
60030;SDS011;45901;47.600;9.890;2023-07-22T19:48:56;6.90;;;2.80;;
60030;SDS011;45901;47.600;9.890;2023-07-22T19:51:23;3.90;;;2.60;;
60030;SDS011;45901;47.600;9.890;2023-07-22T19:53:51;4.60;;;2.40;;
60030;SDS011;45901;47.600;9.890;2023-07-22T19:56:18;3.77;;;2.60;;
60030;SDS011;45901;47.600;9.890;2023-07-22T19:58:45;4.30;;;3.00;;
60030;SDS011;45901;47.600;9.890;2023-07-22T20:01:12;6.90;;;2.50;;
60030;SDS011;45901;47.600;9.890;2023-07-22T20:03:40;4.00;;;2.40;;
60030;SDS011;45901;47.600;9.890;2023-07-22T20:06:07;4.47;;;2.53;;
60030;SDS011;45901;47.600;9.890;2023-07-22T20:08:35;6.53;;;2.90;;
60030;SDS011;45901;47.600;9.890;2023-07-22T20:11:04;4.20;;;2.60;;
60030;SDS011;45901;47.600;9.890;2023-07-22T20:13:32;3.70;;;2.60;;
60030;SDS011;45901;47.600;9.890;2023-07-22T20:16:00;5.97;;;3.00;;
60030;SDS011;45901;47.600;9.890;2023-07-22T20:18:27;4.93;;;2.70;;
60030;SDS011;45901;47.600;9.890;2023-07-22T20:20:54;3.93;;;2.67;;
60030;SDS011;45901;47.600;9.890;2023-07-22T20:23:21;4.03;;;2.73;;
60030;SDS011;45901;47.600;9.890;2023-07-22T20:25:48;3.90;;;3.13;;
60030;SDS011;45901;47.600;9.890;2023-07-22T20:28:17;8.80;;;3.37;;
60030;SDS011;45901;47.600;9.890;2023-07-22T20:30:44;6.07;;;3.40;;
60030;SDS011;45901;47.600;9.890;2023-07-22T20:33:14;6.03;;;3.23;;
60030;SDS011;45901;47.600;9.890;2023-07-22T20:35:41;5.17;;;3.57;;
60030;SDS011;45901;47.600;9.890;2023-07-22T20:38:07;4.87;;;3.03;;
60030;SDS011;45901;47.600;9.890;2023-07-22T20:40:34;6.33;;;3.37;;